sensor_id;sensor_type;location;lat;lon;timestamp;P1;durP1;ratioP1;P2;durP2;ratioP2
64033;SDS011;50280;49.864;8.638;2022-12-10T00:00:15;21.83;;;11.27;;
64033;SDS011;50280;49.864;8.638;2022-12-10T00:02:48;21.13;;;10.27;;
64033;SDS011;50280;49.864;8.638;2022-12-10T00:05:20;24.67;;;11.07;;
64033;SDS011;50280;49.864;8.638;2022-12-10T00:07:53;22.00;;;10.85;;
64033;SDS011;50280;49.864;8.638;2022-12-10T00:10:25;20.13;;;10.48;;
64033;SDS011;50280;49.864;8.638;2022-12-10T00:12:58;20.60;;;11.02;;
64033;SDS011;50280;49.864;8.638;2022-12-10T00:15:31;22.60;;;11.30;;
64033;SDS011;50280;49.864;8.638;2022-12-10T00:18:06;21.23;;;11.02;;
64033;SDS011;50280;49.864;8.638;2022-12-10T00:20:38;21.55;;;10.85;;
64033;SDS011;50280;49.864;8.638;2022-12-10T00:23:11;20.98;;;10.95;;
64033;SDS011;50280;49.864;8.638;2022-12-10T00:25:43;21.45;;;11.27;;
64033;SDS011;50280;49.864;8.638;2022-12-10T00:28:16;21.70;;;11.35;;
64033;SDS011;50280;49.864;8.638;2022-12-10T00:30:50;21.63;;;11.43;;
64033;SDS011;50280;49.864;8.638;2022-12-10T00:33:22;19.85;;;10.88;;
64033;SDS011;50280;49.864;8.638;2022-12-10T00:35:54;21.10;;;11.15;;
64033;SDS011;50280;49.864;8.638;2022-12-10T00:38:27;20.88;;;10.52;;
64033;SDS011;50280;49.864;8.638;2022-12-10T00:41:00;22.40;;;11.30;;
64033;SDS011;50280;49.864;8.638;2022-12-10T00:43:34;23.15;;;10.68;;
64033;SDS011;50280;49.864;8.638;2022-12-10T00:46:08;21.40;;;10.98;;
64033;SDS011;50280;49.864;8.638;2022-12-10T00:48:42;20.67;;;11.40;;
64033;SDS011;50280;49.864;8.638;2022-12-10T00:51:16;20.85;;;10.93;;
64033;SDS011;50280;49.864;8.638;2022-12-10T00:53:52;20.50;;;10.38;;
64033;SDS011;50280;49.864;8.638;2022-12-10T00:56:29;22.85;;;11.60;;
64033;SDS011;50280;49.864;8.638;2022-12-10T00:59:04;21.48;;;10.38;;
64033;SDS011;50280;49.864;8.638;2022-12-10T01:01:38;21.08;;;10.57;;
64033;SDS011;50280;49.864;8.638;2022-12-10T01:04:15;24.77;;;11.80;;
64033;SDS011;50280;49.864;8.638;2022-12-10T01:06:50;22.30;;;10.93;;
64033;SDS011;50280;49.864;8.638;2022-12-10T01:09:26;25.30;;;11.13;;
64033;SDS011;50280;49.864;8.638;2022-12-10T01:12:02;22.00;;;11.10;;
64033;SDS011;50280;49.864;8.638;2022-12-10T01:14:36;18.88;;;10.23;;
64033;SDS011;50280;49.864;8.638;2022-12-10T01:17:10;24.38;;;12.02;;
64033;SDS011;50280;49.864;8.638;2022-12-10T01:19:42;22.85;;;10.75;;
64033;SDS011;50280;49.864;8.638;2022-12-10T01:22:15;22.92;;;11.82;;
64033;SDS011;50280;49.864;8.638;2022-12-10T01:24:47;24.13;;;11.50;;
64033;SDS011;50280;49.864;8.638;2022-12-10T01:27:19;23.67;;;12.25;;
64033;SDS011;50280;49.864;8.638;2022-12-10T01:29:52;23.00;;;10.98;;
64033;SDS011;50280;49.864;8.638;2022-12-10T01:32:25;20.77;;;10.68;;
64033;SDS011;50280;49.864;8.638;2022-12-10T01:34:58;22.70;;;11.05;;
64033;SDS011;50280;49.864;8.638;2022-12-10T01:37:30;24.52;;;11.15;;
64033;SDS011;50280;49.864;8.638;2022-12-10T01:40:03;21.05;;;11.05;;
64033;SDS011;50280;49.864;8.638;2022-12-10T01:42:37;24.70;;;11.68;;
64033;SDS011;50280;49.864;8.638;2022-12-10T01:45:10;20.48;;;11.55;;
64033;SDS011;50280;49.864;8.638;2022-12-10T01:47:45;22.55;;;11.43;;
64033;SDS011;50280;49.864;8.638;2022-12-10T01:50:17;23.80;;;11.43;;
64033;SDS011;50280;49.864;8.638;2022-12-10T01:52:50;19.38;;;11.05;;
64033;SDS011;50280;49.864;8.638;2022-12-10T01:55:40;23.48;;;11.25;;
64033;SDS011;50280;49.864;8.638;2022-12-10T01:58:19;21.20;;;10.75;;
64033;SDS011;50280;49.864;8.638;2022-12-10T02:00:55;22.70;;;11.10;;
64033;SDS011;50280;49.864;8.638;2022-12-10T02:03:46;23.83;;;11.40;;
64033;SDS011;50280;49.864;8.638;2022-12-10T02:06:37;23.33;;;11.48;;
64033;SDS011;50280;49.864;8.638;2022-12-10T02:09:25;20.15;;;11.00;;
64033;SDS011;50280;49.864;8.638;2022-12-10T02:12:11;19.95;;;10.25;;
64033;SDS011;50280;49.864;8.638;2022-12-10T02:14:55;20.38;;;10.27;;
64033;SDS011;50280;49.864;8.638;2022-12-10T02:17:39;19.70;;;10.32;;
64033;SDS011;50280;49.864;8.638;2022-12-10T02:20:22;20.20;;;10.18;;
64033;SDS011;50280;49.864;8.638;2022-12-10T02:23:04;19.83;;;10.30;;
64033;SDS011;50280;49.864;8.638;2022-12-10T02:25:46;22.83;;;10.70;;
64033;SDS011;50280;49.864;8.638;2022-12-10T02:28:35;20.20;;;10.30;;
64033;SDS011;50280;49.864;8.638;2022-12-10T02:31:21;22.08;;;10.82;;
64033;SDS011;50280;49.864;8.638;2022-12-10T02:34:02;18.75;;;10.35;;
64033;SDS011;50280;49.864;8.638;2022-12-10T02:36:39;17.83;;;9.80;;
64033;SDS011;50280;49.864;8.638;2022-12-10T02:39:20;19.92;;;10.82;;
64033;SDS011;50280;49.864;8.638;2022-12-10T02:42:03;19.85;;;9.73;;
64033;SDS011;50280;49.864;8.638;2022-12-10T02:44:40;21.75;;;10.82;;
64033;SDS011;50280;49.864;8.638;2022-12-10T02:47:20;20.13;;;10.00;;
64033;SDS011;50280;49.864;8.638;2022-12-10T02:49:53;19.17;;;10.07;;
64033;SDS011;50280;49.864;8.638;2022-12-10T02:52:30;19.35;;;10.10;;
64033;SDS011;50280;49.864;8.638;2022-12-10T02:55:03;20.42;;;10.65;;
64033;SDS011;50280;49.864;8.638;2022-12-10T02:57:36;22.25;;;10.10;;
64033;SDS011;50280;49.864;8.638;2022-12-10T03:00:31;21.02;;;11.10;;
64033;SDS011;50280;49.864;8.638;2022-12-10T03:03:23;21.45;;;10.45;;
64033;SDS011;50280;49.864;8.638;2022-12-10T03:06:09;19.67;;;10.10;;
64033;SDS011;50280;49.864;8.638;2022-12-10T03:08:54;18.60;;;9.77;;
64033;SDS011;50280;49.864;8.638;2022-12-10T03:11:38;20.15;;;10.02;;
64033;SDS011;50280;49.864;8.638;2022-12-10T03:14:18;18.60;;;10.02;;
64033;SDS011;50280;49.864;8.638;2022-12-10T03:16:58;19.15;;;9.77;;
64033;SDS011;50280;49.864;8.638;2022-12-10T03:19:35;23.15;;;9.98;;
64033;SDS011;50280;49.864;8.638;2022-12-10T03:22:17;18.80;;;9.73;;
64033;SDS011;50280;49.864;8.638;2022-12-10T03:24:52;18.33;;;9.27;;
64033;SDS011;50280;49.864;8.638;2022-12-10T03:27:25;19.17;;;9.35;;
64033;SDS011;50280;49.864;8.638;2022-12-10T03:30:01;18.15;;;9.50;;
64033;SDS011;50280;49.864;8.638;2022-12-10T03:32:35;19.75;;;9.70;;
64033;SDS011;50280;49.864;8.638;2022-12-10T03:35:10;18.30;;;9.57;;
64033;SDS011;50280;49.864;8.638;2022-12-10T03:37:46;17.30;;;9.55;;
64033;SDS011;50280;49.864;8.638;2022-12-10T03:40:22;18.50;;;9.90;;
64033;SDS011;50280;49.864;8.638;2022-12-10T03:42:57;18.23;;;8.93;;
64033;SDS011;50280;49.864;8.638;2022-12-10T03:45:29;16.98;;;9.27;;
64033;SDS011;50280;49.864;8.638;2022-12-10T03:48:02;18.90;;;9.40;;
64033;SDS011;50280;49.864;8.638;2022-12-10T03:50:36;16.98;;;9.32;;
64033;SDS011;50280;49.864;8.638;2022-12-10T03:53:09;17.70;;;9.38;;
64033;SDS011;50280;49.864;8.638;2022-12-10T03:55:41;17.65;;;9.55;;
64033;SDS011;50280;49.864;8.638;2022-12-10T03:58:13;16.13;;;8.90;;
64033;SDS011;50280;49.864;8.638;2022-12-10T04:00:46;16.40;;;8.45;;
64033;SDS011;50280;49.864;8.638;2022-12-10T04:03:18;19.10;;;9.15;;
64033;SDS011;50280;49.864;8.638;2022-12-10T04:05:52;16.63;;;8.82;;
64033;SDS011;50280;49.864;8.638;2022-12-10T04:08:24;17.45;;;9.07;;
64033;SDS011;50280;49.864;8.638;2022-12-10T04:11:01;16.45;;;8.80;;
64033;SDS011;50280;49.864;8.638;2022-12-10T04:13:36;18.80;;;8.77;;
64033;SDS011;50280;49.864;8.638;2022-12-10T04:16:10;17.63;;;9.00;;
64033;SDS011;50280;49.864;8.638;2022-12-10T04:18:42;14.85;;;8.05;;
64033;SDS011;50280;49.864;8.638;2022-12-10T04:21:16;17.30;;;8.90;;
64033;SDS011;50280;49.864;8.638;2022-12-10T04:23:48;17.27;;;8.82;;
64033;SDS011;50280;49.864;8.638;2022-12-10T04:26:21;17.67;;;9.10;;
64033;SDS011;50280;49.864;8.638;2022-12-10T04:28:53;17.65;;;9.73;;
64033;SDS011;50280;49.864;8.638;2022-12-10T04:31:26;18.83;;;9.20;;
64033;SDS011;50280;49.864;8.638;2022-12-10T04:33:58;17.60;;;9.05;;
64033;SDS011;50280;49.864;8.638;2022-12-10T04:36:32;17.50;;;8.68;;
64033;SDS011;50280;49.864;8.638;2022-12-10T04:39:04;18.05;;;9.35;;
64033;SDS011;50280;49.864;8.638;2022-12-10T04:41:37;14.63;;;8.20;;
64033;SDS011;50280;49.864;8.638;2022-12-10T04:44:11;14.35;;;8.30;;
64033;SDS011;50280;49.864;8.638;2022-12-10T04:46:44;15.93;;;8.73;;
64033;SDS011;50280;49.864;8.638;2022-12-10T04:49:17;16.30;;;9.00;;
64033;SDS011;50280;49.864;8.638;2022-12-10T04:51:51;17.08;;;8.77;;
64033;SDS011;50280;49.864;8.638;2022-12-10T04:54:24;17.63;;;9.52;;
64033;SDS011;50280;49.864;8.638;2022-12-10T04:56:58;14.45;;;8.27;;
64033;SDS011;50280;49.864;8.638;2022-12-10T04:59:30;17.30;;;9.25;;
64033;SDS011;50280;49.864;8.638;2022-12-10T05:02:03;16.35;;;8.80;;
64033;SDS011;50280;49.864;8.638;2022-12-10T05:04:36;16.52;;;8.57;;
64033;SDS011;50280;49.864;8.638;2022-12-10T05:07:09;15.30;;;8.35;;
64033;SDS011;50280;49.864;8.638;2022-12-10T05:09:42;16.88;;;8.52;;
64033;SDS011;50280;49.864;8.638;2022-12-10T05:12:14;15.70;;;8.45;;
64033;SDS011;50280;49.864;8.638;2022-12-10T05:14:46;16.77;;;8.27;;
64033;SDS011;50280;49.864;8.638;2022-12-10T05:17:19;16.63;;;8.30;;
64033;SDS011;50280;49.864;8.638;2022-12-10T05:19:51;17.20;;;8.27;;
64033;SDS011;50280;49.864;8.638;2022-12-10T05:22:25;15.70;;;8.18;;
64033;SDS011;50280;49.864;8.638;2022-12-10T05:24:58;16.08;;;8.63;;
64033;SDS011;50280;49.864;8.638;2022-12-10T05:27:31;16.13;;;9.13;;
64033;SDS011;50280;49.864;8.638;2022-12-10T05:30:05;16.40;;;8.27;;
64033;SDS011;50280;49.864;8.638;2022-12-10T05:32:40;15.98;;;8.27;;
64033;SDS011;50280;49.864;8.638;2022-12-10T05:35:12;17.45;;;9.13;;
64033;SDS011;50280;49.864;8.638;2022-12-10T05:37:46;18.65;;;9.45;;
64033;SDS011;50280;49.864;8.638;2022-12-10T05:40:18;17.77;;;8.88;;
64033;SDS011;50280;49.864;8.638;2022-12-10T05:42:51;17.67;;;9.00;;
64033;SDS011;50280;49.864;8.638;2022-12-10T05:45:23;19.63;;;10.27;;
64033;SDS011;50280;49.864;8.638;2022-12-10T05:47:55;17.58;;;9.10;;
64033;SDS011;50280;49.864;8.638;2022-12-10T05:50:28;18.90;;;9.73;;
64033;SDS011;50280;49.864;8.638;2022-12-10T05:53:04;18.30;;;9.35;;
64033;SDS011;50280;49.864;8.638;2022-12-10T05:55:37;17.92;;;9.88;;
64033;SDS011;50280;49.864;8.638;2022-12-10T05:58:09;18.58;;;8.95;;
64033;SDS011;50280;49.864;8.638;2022-12-10T06:00:42;18.80;;;9.02;;
64033;SDS011;50280;49.864;8.638;2022-12-10T06:03:14;15.38;;;8.77;;
64033;SDS011;50280;49.864;8.638;2022-12-10T06:05:47;18.73;;;9.65;;
64033;SDS011;50280;49.864;8.638;2022-12-10T06:08:20;19.98;;;9.43;;
64033;SDS011;50280;49.864;8.638;2022-12-10T06:10:54;17.38;;;8.90;;
64033;SDS011;50280;49.864;8.638;2022-12-10T06:13:26;17.88;;;8.88;;
64033;SDS011;50280;49.864;8.638;2022-12-10T06:15:58;20.50;;;9.65;;
64033;SDS011;50280;49.864;8.638;2022-12-10T06:18:35;17.92;;;9.45;;
64033;SDS011;50280;49.864;8.638;2022-12-10T06:21:09;17.13;;;9.57;;
64033;SDS011;50280;49.864;8.638;2022-12-10T06:23:48;16.02;;;8.68;;
64033;SDS011;50280;49.864;8.638;2022-12-10T06:26:23;18.70;;;9.30;;
64033;SDS011;50280;49.864;8.638;2022-12-10T06:28:57;17.35;;;9.15;;
64033;SDS011;50280;49.864;8.638;2022-12-10T06:31:30;17.23;;;9.10;;
64033;SDS011;50280;49.864;8.638;2022-12-10T06:34:02;17.83;;;8.93;;
64033;SDS011;50280;49.864;8.638;2022-12-10T06:36:34;14.90;;;8.52;;
64033;SDS011;50280;49.864;8.638;2022-12-10T06:39:08;15.50;;;8.70;;
64033;SDS011;50280;49.864;8.638;2022-12-10T06:41:41;16.75;;;9.07;;
64033;SDS011;50280;49.864;8.638;2022-12-10T06:44:13;15.10;;;8.43;;
64033;SDS011;50280;49.864;8.638;2022-12-10T06:46:46;15.88;;;8.60;;
64033;SDS011;50280;49.864;8.638;2022-12-10T06:49:18;20.10;;;8.68;;
64033;SDS011;50280;49.864;8.638;2022-12-10T06:51:50;16.88;;;9.50;;
64033;SDS011;50280;49.864;8.638;2022-12-10T06:54:24;15.82;;;8.05;;
64033;SDS011;50280;49.864;8.638;2022-12-10T06:56:56;17.23;;;8.93;;
64033;SDS011;50280;49.864;8.638;2022-12-10T06:59:29;17.85;;;9.20;;
64033;SDS011;50280;49.864;8.638;2022-12-10T07:02:01;17.48;;;8.75;;
64033;SDS011;50280;49.864;8.638;2022-12-10T07:04:34;17.00;;;8.93;;
64033;SDS011;50280;49.864;8.638;2022-12-10T07:07:06;14.48;;;8.40;;
64033;SDS011;50280;49.864;8.638;2022-12-10T07:09:40;15.70;;;8.82;;
64033;SDS011;50280;49.864;8.638;2022-12-10T07:12:13;16.67;;;8.60;;
64033;SDS011;50280;49.864;8.638;2022-12-10T07:14:48;16.80;;;9.02;;
64033;SDS011;50280;49.864;8.638;2022-12-10T07:17:20;16.42;;;8.82;;
64033;SDS011;50280;49.864;8.638;2022-12-10T07:19:53;16.75;;;9.07;;
64033;SDS011;50280;49.864;8.638;2022-12-10T07:22:25;16.52;;;8.73;;
64033;SDS011;50280;49.864;8.638;2022-12-10T07:24:59;17.35;;;8.55;;
64033;SDS011;50280;49.864;8.638;2022-12-10T07:27:31;17.08;;;8.75;;
64033;SDS011;50280;49.864;8.638;2022-12-10T07:30:04;15.73;;;8.50;;
64033;SDS011;50280;49.864;8.638;2022-12-10T07:32:38;16.65;;;8.82;;
64033;SDS011;50280;49.864;8.638;2022-12-10T07:35:10;15.07;;;8.00;;
64033;SDS011;50280;49.864;8.638;2022-12-10T07:37:43;16.27;;;8.18;;
64033;SDS011;50280;49.864;8.638;2022-12-10T07:40:17;15.70;;;8.00;;
64033;SDS011;50280;49.864;8.638;2022-12-10T07:42:49;15.70;;;8.40;;
64033;SDS011;50280;49.864;8.638;2022-12-10T07:45:21;13.88;;;8.32;;
64033;SDS011;50280;49.864;8.638;2022-12-10T07:47:54;14.07;;;7.72;;
64033;SDS011;50280;49.864;8.638;2022-12-10T07:50:26;15.80;;;8.52;;
64033;SDS011;50280;49.864;8.638;2022-12-10T07:52:58;13.85;;;7.78;;
64033;SDS011;50280;49.864;8.638;2022-12-10T07:55:33;16.13;;;8.68;;
64033;SDS011;50280;49.864;8.638;2022-12-10T07:58:05;13.88;;;7.05;;
64033;SDS011;50280;49.864;8.638;2022-12-10T08:00:38;15.02;;;8.02;;
64033;SDS011;50280;49.864;8.638;2022-12-10T08:03:10;15.38;;;8.05;;
64033;SDS011;50280;49.864;8.638;2022-12-10T08:05:43;14.60;;;8.38;;
64033;SDS011;50280;49.864;8.638;2022-12-10T08:08:15;14.95;;;8.52;;
64033;SDS011;50280;49.864;8.638;2022-12-10T08:10:49;16.63;;;8.32;;
64033;SDS011;50280;49.864;8.638;2022-12-10T08:13:21;16.85;;;8.85;;
64033;SDS011;50280;49.864;8.638;2022-12-10T08:15:53;17.55;;;9.02;;
64033;SDS011;50280;49.864;8.638;2022-12-10T08:18:32;15.55;;;8.38;;
64033;SDS011;50280;49.864;8.638;2022-12-10T08:21:06;17.45;;;8.73;;
64033;SDS011;50280;49.864;8.638;2022-12-10T08:23:43;18.58;;;9.23;;
64033;SDS011;50280;49.864;8.638;2022-12-10T08:26:19;18.98;;;8.90;;
64033;SDS011;50280;49.864;8.638;2022-12-10T08:28:55;16.83;;;8.85;;
64033;SDS011;50280;49.864;8.638;2022-12-10T08:31:28;16.58;;;8.95;;
64033;SDS011;50280;49.864;8.638;2022-12-10T08:34:01;15.25;;;8.25;;
64033;SDS011;50280;49.864;8.638;2022-12-10T08:36:33;14.23;;;7.93;;
64033;SDS011;50280;49.864;8.638;2022-12-10T08:39:06;15.98;;;8.57;;
64033;SDS011;50280;49.864;8.638;2022-12-10T08:41:40;18.58;;;9.27;;
64033;SDS011;50280;49.864;8.638;2022-12-10T08:44:13;18.98;;;9.35;;
64033;SDS011;50280;49.864;8.638;2022-12-10T08:46:46;26.00;;;12.90;;
64033;SDS011;50280;49.864;8.638;2022-12-10T08:49:18;16.17;;;9.27;;
64033;SDS011;50280;49.864;8.638;2022-12-10T08:51:51;17.02;;;8.90;;
64033;SDS011;50280;49.864;8.638;2022-12-10T08:54:23;14.73;;;7.93;;
64033;SDS011;50280;49.864;8.638;2022-12-10T08:56:57;14.68;;;8.20;;
64033;SDS011;50280;49.864;8.638;2022-12-10T08:59:29;28.20;;;14.07;;
64033;SDS011;50280;49.864;8.638;2022-12-10T09:02:02;27.17;;;13.18;;
64033;SDS011;50280;49.864;8.638;2022-12-10T09:04:34;16.95;;;9.48;;
64033;SDS011;50280;49.864;8.638;2022-12-10T09:07:07;16.38;;;9.02;;
64033;SDS011;50280;49.864;8.638;2022-12-10T09:09:39;15.98;;;8.15;;
64033;SDS011;50280;49.864;8.638;2022-12-10T09:12:13;16.50;;;8.50;;
64033;SDS011;50280;49.864;8.638;2022-12-10T09:14:46;17.40;;;9.18;;
64033;SDS011;50280;49.864;8.638;2022-12-10T09:17:18;14.70;;;8.63;;
64033;SDS011;50280;49.864;8.638;2022-12-10T09:19:51;12.93;;;7.80;;
64033;SDS011;50280;49.864;8.638;2022-12-10T09:22:23;15.13;;;8.23;;
64033;SDS011;50280;49.864;8.638;2022-12-10T09:24:55;15.68;;;8.65;;
64033;SDS011;50280;49.864;8.638;2022-12-10T09:27:29;14.02;;;7.75;;
64033;SDS011;50280;49.864;8.638;2022-12-10T09:30:02;13.30;;;7.47;;
64033;SDS011;50280;49.864;8.638;2022-12-10T09:32:36;14.93;;;7.68;;
64033;SDS011;50280;49.864;8.638;2022-12-10T09:35:09;15.23;;;8.30;;
64033;SDS011;50280;49.864;8.638;2022-12-10T09:37:41;14.40;;;7.60;;
64033;SDS011;50280;49.864;8.638;2022-12-10T09:40:14;13.23;;;7.32;;
64033;SDS011;50280;49.864;8.638;2022-12-10T09:42:51;14.43;;;8.20;;
64033;SDS011;50280;49.864;8.638;2022-12-10T09:45:38;14.75;;;8.45;;
64033;SDS011;50280;49.864;8.638;2022-12-10T09:48:31;13.68;;;7.70;;
64033;SDS011;50280;49.864;8.638;2022-12-10T09:51:23;13.38;;;7.45;;
64033;SDS011;50280;49.864;8.638;2022-12-10T09:54:00;15.20;;;8.13;;
64033;SDS011;50280;49.864;8.638;2022-12-10T09:56:49;13.23;;;7.40;;
64033;SDS011;50280;49.864;8.638;2022-12-10T09:59:30;13.32;;;7.75;;
64033;SDS011;50280;49.864;8.638;2022-12-10T10:02:16;13.85;;;7.45;;
64033;SDS011;50280;49.864;8.638;2022-12-10T10:05:00;15.82;;;8.40;;
64033;SDS011;50280;49.864;8.638;2022-12-10T10:07:53;15.90;;;9.07;;
64033;SDS011;50280;49.864;8.638;2022-12-10T10:10:31;14.75;;;8.73;;
64033;SDS011;50280;49.864;8.638;2022-12-10T10:13:12;13.13;;;8.07;;
64033;SDS011;50280;49.864;8.638;2022-12-10T10:16:14;13.07;;;7.93;;
64033;SDS011;50280;49.864;8.638;2022-12-10T10:18:58;13.85;;;8.45;;
64033;SDS011;50280;49.864;8.638;2022-12-10T10:21:35;15.13;;;8.68;;
64033;SDS011;50280;49.864;8.638;2022-12-10T10:24:13;14.65;;;8.07;;
64033;SDS011;50280;49.864;8.638;2022-12-10T10:26:50;16.38;;;8.77;;
64033;SDS011;50280;49.864;8.638;2022-12-10T10:29:29;17.08;;;9.02;;
64033;SDS011;50280;49.864;8.638;2022-12-10T10:32:14;13.93;;;7.82;;
64033;SDS011;50280;49.864;8.638;2022-12-10T10:34:52;15.00;;;8.23;;
64033;SDS011;50280;49.864;8.638;2022-12-10T10:37:29;15.23;;;8.85;;
64033;SDS011;50280;49.864;8.638;2022-12-10T10:40:20;15.85;;;8.68;;
64033;SDS011;50280;49.864;8.638;2022-12-10T10:42:57;16.13;;;9.25;;
64033;SDS011;50280;49.864;8.638;2022-12-10T10:45:34;15.50;;;8.70;;
64033;SDS011;50280;49.864;8.638;2022-12-10T10:48:14;15.65;;;9.15;;
64033;SDS011;50280;49.864;8.638;2022-12-10T10:50:51;14.73;;;8.70;;
64033;SDS011;50280;49.864;8.638;2022-12-10T10:53:28;16.83;;;9.02;;
64033;SDS011;50280;49.864;8.638;2022-12-10T10:56:11;17.80;;;9.25;;
64033;SDS011;50280;49.864;8.638;2022-12-10T10:58:55;15.60;;;9.27;;
64033;SDS011;50280;49.864;8.638;2022-12-10T11:01:43;19.25;;;10.45;;
64033;SDS011;50280;49.864;8.638;2022-12-10T11:04:24;16.98;;;9.80;;
64033;SDS011;50280;49.864;8.638;2022-12-10T11:07:12;16.67;;;9.95;;
64033;SDS011;50280;49.864;8.638;2022-12-10T11:10:12;15.77;;;9.35;;
64033;SDS011;50280;49.864;8.638;2022-12-10T11:12:53;14.65;;;9.13;;
64033;SDS011;50280;49.864;8.638;2022-12-10T11:15:35;16.65;;;9.23;;
64033;SDS011;50280;49.864;8.638;2022-12-10T11:18:22;16.58;;;9.55;;
64033;SDS011;50280;49.864;8.638;2022-12-10T11:21:05;16.70;;;9.65;;
64033;SDS011;50280;49.864;8.638;2022-12-10T11:23:52;16.13;;;9.90;;
64033;SDS011;50280;49.864;8.638;2022-12-10T11:26:34;17.30;;;9.38;;
64033;SDS011;50280;49.864;8.638;2022-12-10T11:29:46;15.80;;;9.07;;
64033;SDS011;50280;49.864;8.638;2022-12-10T11:32:41;17.40;;;9.75;;
64033;SDS011;50280;49.864;8.638;2022-12-10T11:35:46;15.27;;;8.75;;
64033;SDS011;50280;49.864;8.638;2022-12-10T11:38:41;15.65;;;9.55;;
64033;SDS011;50280;49.864;8.638;2022-12-10T11:41:32;16.50;;;9.15;;
64033;SDS011;50280;49.864;8.638;2022-12-10T11:44:22;16.45;;;8.48;;
64033;SDS011;50280;49.864;8.638;2022-12-10T11:47:19;15.90;;;9.00;;
64033;SDS011;50280;49.864;8.638;2022-12-10T11:50:19;16.90;;;9.20;;
64033;SDS011;50280;49.864;8.638;2022-12-10T11:53:12;16.08;;;9.05;;
64033;SDS011;50280;49.864;8.638;2022-12-10T11:56:22;15.82;;;8.60;;
64033;SDS011;50280;49.864;8.638;2022-12-10T11:59:09;17.35;;;9.02;;
64033;SDS011;50280;49.864;8.638;2022-12-10T12:02:07;17.55;;;9.05;;
64033;SDS011;50280;49.864;8.638;2022-12-10T12:05:34;15.23;;;8.32;;
64033;SDS011;50280;49.864;8.638;2022-12-10T12:08:28;15.60;;;8.10;;
64033;SDS011;50280;49.864;8.638;2022-12-10T12:11:24;17.65;;;9.27;;
64033;SDS011;50280;49.864;8.638;2022-12-10T12:14:26;15.65;;;8.60;;
64033;SDS011;50280;49.864;8.638;2022-12-10T12:17:13;16.17;;;7.97;;
64033;SDS011;50280;49.864;8.638;2022-12-10T12:19:56;15.65;;;8.30;;
64033;SDS011;50280;49.864;8.638;2022-12-10T12:22:35;14.52;;;7.82;;
64033;SDS011;50280;49.864;8.638;2022-12-10T12:25:20;14.75;;;8.80;;
64033;SDS011;50280;49.864;8.638;2022-12-10T12:28:02;14.23;;;8.05;;
64033;SDS011;50280;49.864;8.638;2022-12-10T12:30:46;15.38;;;8.60;;
64033;SDS011;50280;49.864;8.638;2022-12-10T12:33:32;16.08;;;8.90;;
64033;SDS011;50280;49.864;8.638;2022-12-10T12:36:17;15.68;;;8.68;;
64033;SDS011;50280;49.864;8.638;2022-12-10T12:38:56;17.13;;;8.85;;
64033;SDS011;50280;49.864;8.638;2022-12-10T12:41:45;17.40;;;8.65;;
64033;SDS011;50280;49.864;8.638;2022-12-10T12:44:32;15.50;;;8.68;;
64033;SDS011;50280;49.864;8.638;2022-12-10T12:47:22;15.13;;;7.82;;
64033;SDS011;50280;49.864;8.638;2022-12-10T12:50:18;16.33;;;8.68;;
64033;SDS011;50280;49.864;8.638;2022-12-10T12:53:09;15.68;;;8.63;;
64033;SDS011;50280;49.864;8.638;2022-12-10T12:55:50;14.40;;;8.10;;
64033;SDS011;50280;49.864;8.638;2022-12-10T12:58:38;13.27;;;7.73;;
64033;SDS011;50280;49.864;8.638;2022-12-10T13:01:27;13.27;;;8.07;;
64033;SDS011;50280;49.864;8.638;2022-12-10T13:04:11;13.50;;;7.72;;
64033;SDS011;50280;49.864;8.638;2022-12-10T13:10:17;15.55;;;8.05;;
64033;SDS011;50280;49.864;8.638;2022-12-10T13:13:06;16.40;;;7.63;;
64033;SDS011;50280;49.864;8.638;2022-12-10T13:15:56;12.88;;;7.38;;
64033;SDS011;50280;49.864;8.638;2022-12-10T13:19:29;15.55;;;8.63;;
64033;SDS011;50280;49.864;8.638;2022-12-10T13:22:04;14.68;;;7.30;;
64033;SDS011;50280;49.864;8.638;2022-12-10T13:27:54;20.92;;;11.15;;
64033;SDS011;50280;49.864;8.638;2022-12-10T13:34:06;15.13;;;7.78;;
64033;SDS011;50280;49.864;8.638;2022-12-10T13:37:06;11.98;;;7.10;;
64033;SDS011;50280;49.864;8.638;2022-12-10T13:42:57;15.63;;;7.32;;
64033;SDS011;50280;49.864;8.638;2022-12-10T13:48:57;14.90;;;7.68;;
64033;SDS011;50280;49.864;8.638;2022-12-10T13:51:38;15.57;;;7.97;;
64033;SDS011;50280;49.864;8.638;2022-12-10T13:54:35;14.93;;;8.43;;
64033;SDS011;50280;49.864;8.638;2022-12-10T14:01:10;12.73;;;7.15;;
64033;SDS011;50280;49.864;8.638;2022-12-10T14:04:13;15.52;;;7.70;;
64033;SDS011;50280;49.864;8.638;2022-12-10T14:07:08;12.90;;;7.45;;
64033;SDS011;50280;49.864;8.638;2022-12-10T14:09:48;12.85;;;7.30;;
64033;SDS011;50280;49.864;8.638;2022-12-10T14:12:27;13.63;;;7.47;;
64033;SDS011;50280;49.864;8.638;2022-12-10T14:15:07;13.57;;;7.30;;
64033;SDS011;50280;49.864;8.638;2022-12-10T14:17:51;13.32;;;7.25;;
64033;SDS011;50280;49.864;8.638;2022-12-10T14:20:35;12.50;;;7.43;;
64033;SDS011;50280;49.864;8.638;2022-12-10T14:23:20;12.50;;;6.95;;
64033;SDS011;50280;49.864;8.638;2022-12-10T14:26:03;11.93;;;6.57;;
64033;SDS011;50280;49.864;8.638;2022-12-10T14:28:39;17.23;;;9.50;;
64033;SDS011;50280;49.864;8.638;2022-12-10T14:31:19;13.55;;;7.65;;
64033;SDS011;50280;49.864;8.638;2022-12-10T14:34:00;12.40;;;7.20;;
64033;SDS011;50280;49.864;8.638;2022-12-10T14:39:19;12.18;;;6.50;;
64033;SDS011;50280;49.864;8.638;2022-12-10T14:41:58;11.98;;;6.13;;
64033;SDS011;50280;49.864;8.638;2022-12-10T14:44:37;11.65;;;7.00;;
64033;SDS011;50280;49.864;8.638;2022-12-10T14:47:13;12.05;;;6.75;;
64033;SDS011;50280;49.864;8.638;2022-12-10T14:49:49;16.10;;;7.43;;
64033;SDS011;50280;49.864;8.638;2022-12-10T14:52:33;11.75;;;7.03;;
64033;SDS011;50280;49.864;8.638;2022-12-10T14:55:14;11.77;;;7.00;;
64033;SDS011;50280;49.864;8.638;2022-12-10T14:57:54;13.45;;;7.60;;
64033;SDS011;50280;49.864;8.638;2022-12-10T15:00:35;13.25;;;7.20;;
64033;SDS011;50280;49.864;8.638;2022-12-10T15:03:08;15.45;;;8.98;;
64033;SDS011;50280;49.864;8.638;2022-12-10T15:05:53;13.23;;;7.25;;
64033;SDS011;50280;49.864;8.638;2022-12-10T15:08:30;14.50;;;7.80;;
64033;SDS011;50280;49.864;8.638;2022-12-10T15:11:03;13.32;;;7.45;;
64033;SDS011;50280;49.864;8.638;2022-12-10T15:13:37;12.77;;;7.40;;
64033;SDS011;50280;49.864;8.638;2022-12-10T15:16:16;13.80;;;7.60;;
64033;SDS011;50280;49.864;8.638;2022-12-10T15:18:51;12.95;;;7.22;;
64033;SDS011;50280;49.864;8.638;2022-12-10T15:21:24;12.93;;;7.30;;
64033;SDS011;50280;49.864;8.638;2022-12-10T15:24:09;13.10;;;7.68;;
64033;SDS011;50280;49.864;8.638;2022-12-10T15:26:51;12.95;;;7.60;;
64033;SDS011;50280;49.864;8.638;2022-12-10T15:29:34;13.73;;;7.75;;
64033;SDS011;50280;49.864;8.638;2022-12-10T15:32:10;11.98;;;7.55;;
64033;SDS011;50280;49.864;8.638;2022-12-10T15:34:47;12.18;;;7.30;;
64033;SDS011;50280;49.864;8.638;2022-12-10T15:37:26;12.50;;;7.38;;
64033;SDS011;50280;49.864;8.638;2022-12-10T15:40:21;12.80;;;7.40;;
64033;SDS011;50280;49.864;8.638;2022-12-10T15:43:10;12.82;;;7.50;;
64033;SDS011;50280;49.864;8.638;2022-12-10T15:45:58;12.43;;;6.90;;
64033;SDS011;50280;49.864;8.638;2022-12-10T15:48:31;14.90;;;8.13;;
64033;SDS011;50280;49.864;8.638;2022-12-10T15:51:03;13.68;;;7.95;;
64033;SDS011;50280;49.864;8.638;2022-12-10T15:53:37;13.05;;;7.30;;
64033;SDS011;50280;49.864;8.638;2022-12-10T15:56:12;17.20;;;8.10;;
64033;SDS011;50280;49.864;8.638;2022-12-10T15:58:44;14.20;;;7.50;;